createdAt,value
2022-10-11T00:00:17.090Z,17.87
2022-10-11T00:03:05.097Z,19.83
2022-10-11T00:05:33.208Z,24.63
2022-10-11T00:08:00.476Z,26.40
2022-10-11T00:10:28.163Z,24.83
2022-10-11T00:12:55.670Z,23.80
2022-10-11T00:15:23.360Z,23.13
2022-10-11T00:17:50.791Z,21.40
2022-10-11T00:20:18.568Z,19.27
2022-10-11T00:22:45.955Z,22.33
2022-10-11T00:25:13.628Z,21.53
2022-10-11T00:27:41.274Z,18.67
2022-10-11T00:30:09.967Z,33.20
2022-10-11T00:32:38.474Z,24.33
2022-10-11T00:35:07.493Z,28.00
2022-10-11T00:37:36.561Z,23.17
2022-10-11T00:40:15.625Z,24.70
2022-10-11T00:42:43.144Z,35.33
2022-10-11T00:45:31.324Z,31.47
2022-10-11T00:48:03.840Z,25.97
2022-10-11T00:50:34.862Z,29.93
2022-10-11T00:53:08.174Z,30.43
2022-10-11T00:55:40.546Z,24.57
2022-10-11T00:58:08.301Z,29.60
2022-10-11T01:00:35.780Z,26.90
2022-10-11T01:03:04.638Z,29.27
2022-10-11T01:05:32.468Z,26.47
2022-10-11T01:08:00.970Z,36.77
2022-10-11T01:10:29.332Z,34.23
2022-10-11T01:13:35.679Z,38.13
2022-10-11T01:16:27.244Z,35.93
2022-10-11T01:19:15.523Z,37.17
2022-10-11T01:21:53.699Z,33.87
2022-10-11T01:25:12.108Z,35.20
2022-10-11T01:28:09.490Z,35.80
2022-10-11T01:30:38.136Z,37.13
2022-10-11T01:33:21.190Z,37.40
2022-10-11T01:36:13.635Z,33.23
2022-10-11T01:38:49.572Z,36.83
2022-10-11T01:41:24.675Z,32.73
2022-10-11T01:43:59.866Z,31.80
2022-10-11T01:46:29.082Z,33.80
2022-10-11T01:49:01.542Z,38.60
2022-10-11T01:51:34.659Z,36.80
2022-10-11T01:54:13.814Z,31.87
2022-10-11T01:56:55.363Z,31.60
2022-10-11T01:59:55.604Z,32.17
2022-10-11T02:02:38.322Z,25.87
2022-10-11T02:05:29.493Z,31.67
2022-10-11T02:08:16.166Z,30.23
2022-10-11T02:10:58.813Z,34.77
2022-10-11T02:13:42.887Z,30.63
2022-10-11T02:16:19.030Z,30.90
2022-10-11T02:18:50.172Z,26.43
2022-10-11T02:21:21.856Z,29.77
2022-10-11T02:24:16.869Z,24.40
2022-10-11T02:26:49.313Z,29.40
2022-10-11T02:29:18.396Z,29.07
2022-10-11T02:31:46.947Z,25.00
2022-10-11T02:34:31.474Z,25.37
2022-10-11T02:37:05.487Z,20.80
2022-10-11T02:40:05.174Z,23.03
2022-10-11T02:42:38.989Z,25.30
2022-10-11T02:45:16.391Z,25.43
2022-10-11T02:47:44.712Z,24.30
2022-10-11T02:50:13.559Z,25.00
2022-10-11T02:52:40.861Z,28.73
2022-10-11T02:55:09.091Z,22.50
2022-10-11T02:57:36.328Z,30.60
2022-10-11T03:00:05.006Z,22.80
2022-10-11T03:02:32.517Z,26.53
2022-10-11T03:05:00.416Z,24.07
2022-10-11T03:07:27.791Z,26.07
2022-10-11T03:09:55.277Z,25.63
2022-10-11T03:12:22.621Z,27.03
2022-10-11T03:14:49.946Z,24.93
2022-10-11T03:17:35.685Z,26.30
2022-10-11T03:20:05.024Z,28.50
2022-10-11T03:22:32.593Z,24.90
2022-10-11T03:25:04.049Z,33.33
2022-10-11T03:27:33.437Z,28.17
2022-10-11T03:30:01.975Z,28.73
2022-10-11T03:32:29.742Z,34.00
2022-10-11T03:34:57.544Z,25.90
2022-10-11T03:37:25.576Z,23.33
2022-10-11T03:39:52.907Z,23.43
2022-10-11T03:42:20.181Z,27.23
2022-10-11T03:44:49.742Z,26.10
2022-10-11T03:47:17.318Z,22.73
2022-10-11T03:49:45.044Z,24.43
2022-10-11T03:52:17.078Z,26.23
2022-10-11T03:54:44.391Z,20.83
2022-10-11T03:57:11.749Z,27.60
2022-10-11T03:59:39.209Z,27.07
2022-10-11T04:02:07.206Z,25.47
2022-10-11T04:04:34.552Z,19.20
2022-10-11T04:07:02.247Z,23.57
2022-10-11T04:09:29.794Z,20.90
2022-10-11T04:11:57.603Z,19.77
2022-10-11T04:14:25.327Z,23.40
2022-10-11T04:16:52.714Z,22.77
2022-10-11T04:19:20.420Z,19.87
2022-10-11T04:21:47.913Z,18.73
2022-10-11T04:24:16.504Z,27.10
2022-10-11T04:26:46.293Z,20.73
2022-10-11T04:29:16.716Z,24.90
2022-10-11T04:31:46.303Z,26.93
2022-10-11T04:34:14.834Z,23.20
2022-10-11T04:36:49.644Z,20.67
2022-10-11T04:39:18.192Z,17.50
2022-10-11T04:41:46.510Z,24.40
2022-10-11T04:44:14.746Z,17.17
2022-10-11T04:46:42.939Z,18.83
2022-10-11T04:49:10.917Z,18.73
2022-10-11T04:51:39.720Z,25.10
2022-10-11T04:54:07.977Z,21.83
2022-10-11T04:56:35.518Z,22.27
2022-10-11T04:59:02.878Z,19.40
2022-10-11T05:01:30.135Z,19.93
2022-10-11T05:03:57.546Z,20.60
2022-10-11T05:06:25.172Z,22.20
2022-10-11T05:08:52.417Z,23.60
2022-10-11T05:11:20.385Z,19.17
2022-10-11T05:13:48.137Z,18.13
2022-10-11T05:16:16.631Z,17.80
2022-10-11T05:18:44.868Z,21.93
2022-10-11T05:21:21.568Z,20.03
2022-10-11T05:23:51.252Z,20.40
2022-10-11T05:26:20.103Z,18.73
2022-10-11T05:28:48.266Z,18.13
2022-10-11T05:31:16.579Z,17.60
2022-10-11T05:33:44.416Z,14.73
2022-10-11T05:36:12.133Z,25.33
2022-10-11T05:38:39.913Z,15.77
2022-10-11T05:41:09.467Z,12.77
2022-10-11T05:43:37.183Z,19.13
2022-10-11T05:46:04.881Z,10.73
2022-10-11T05:48:32.285Z,13.83
2022-10-11T05:51:05.742Z,13.83
2022-10-11T05:53:33.679Z,16.67
2022-10-11T05:56:01.807Z,15.80
2022-10-11T05:58:29.702Z,16.33
2022-10-11T06:00:57.395Z,11.03
2022-10-11T06:03:24.983Z,11.00
2022-10-11T06:05:56.806Z,17.03
2022-10-11T06:08:24.803Z,14.23
2022-10-11T06:10:52.281Z,15.70
2022-10-11T06:13:19.722Z,14.73
2022-10-11T06:15:47.575Z,12.30
2022-10-11T06:18:15.479Z,16.93
2022-10-11T06:20:42.804Z,15.83
2022-10-11T06:23:10.281Z,17.93
2022-10-11T06:25:37.507Z,18.07
2022-10-11T06:28:04.876Z,22.43
2022-10-11T06:30:32.458Z,14.63
2022-10-11T06:33:04.461Z,19.43
2022-10-11T06:35:32.547Z,14.60
2022-10-11T06:38:00.345Z,13.70
2022-10-11T06:40:27.771Z,19.57
2022-10-11T06:42:55.101Z,19.17
2022-10-11T06:45:22.650Z,10.33
2022-10-11T06:47:50.012Z,18.73
2022-10-11T06:50:25.881Z,10.60
2022-10-11T06:53:02.572Z,14.07
2022-10-11T06:55:31.997Z,13.60
2022-10-11T06:58:01.868Z,10.10
2022-10-11T07:00:29.558Z,14.83
2022-10-11T07:02:56.978Z,10.50
2022-10-11T07:05:24.430Z,10.67
2022-10-11T07:07:51.916Z,12.53
2022-10-11T07:10:19.455Z,11.90
2022-10-11T07:12:49.734Z,11.20
2022-10-11T07:15:17.426Z,11.57
2022-10-11T07:17:44.876Z,16.17
2022-10-11T07:20:12.702Z,16.23
2022-10-11T07:22:40.208Z,11.73
2022-10-11T07:25:07.853Z,14.37
2022-10-11T07:27:35.126Z,13.13
2022-10-11T07:30:02.664Z,12.27
2022-10-11T07:32:30.452Z,15.00
2022-10-11T07:35:00.107Z,14.40
2022-10-11T07:37:30.010Z,10.40
2022-10-11T07:39:57.373Z,12.73
2022-10-11T07:42:24.949Z,11.50
2022-10-11T07:44:52.382Z,9.67
2022-10-11T07:47:19.634Z,16.70
2022-10-11T07:49:47.108Z,14.67
2022-10-11T07:52:14.616Z,8.70
2022-10-11T07:54:42.535Z,11.37
2022-10-11T07:57:09.975Z,21.87
2022-10-11T07:59:37.660Z,19.80
2022-10-11T08:02:05.066Z,20.47
2022-10-11T08:04:32.492Z,21.77
2022-10-11T08:06:59.977Z,16.23
2022-10-11T08:09:27.682Z,14.03
2022-10-11T08:11:55.717Z,17.67
2022-10-11T08:14:23.370Z,23.47
2022-10-11T08:16:50.761Z,14.23
2022-10-11T08:19:19.106Z,13.27
2022-10-11T08:21:46.640Z,27.07
2022-10-11T08:24:14.227Z,19.17
2022-10-11T08:26:41.504Z,19.42
2022-10-11T08:29:09.657Z,21.70
2022-10-11T08:31:36.941Z,17.40
2022-10-11T08:34:04.670Z,47.20
2022-10-11T08:36:32.377Z,15.23
2022-10-11T08:39:00.725Z,108.60
2022-10-11T08:41:53.711Z,16.52
2022-10-11T08:45:09.406Z,13.50
2022-10-11T08:47:39.442Z,9.60
2022-10-11T08:50:15.867Z,9.68
2022-10-11T08:52:49.745Z,7.82
2022-10-11T08:55:44.279Z,9.82
2022-10-11T08:58:16.346Z,12.52
2022-10-11T09:00:50.216Z,12.73
2022-10-11T09:03:41.576Z,11.13
2022-10-11T09:06:28.435Z,9.57
2022-10-11T09:09:31.176Z,15.77
2022-10-11T09:12:23.239Z,10.10
2022-10-11T09:15:21.140Z,8.88
2022-10-11T09:17:57.532Z,13.95
2022-10-11T09:20:33.601Z,12.73
2022-10-11T09:23:19.176Z,8.95
2022-10-11T09:25:58.879Z,13.52
2022-10-11T09:28:45.249Z,15.73
2022-10-11T09:31:12.772Z,8.50
2022-10-11T09:33:47.256Z,15.75
2022-10-11T09:36:29.312Z,13.30
2022-10-11T09:39:06.816Z,16.25
2022-10-11T09:41:56.973Z,11.98
2022-10-11T09:44:28.052Z,12.18
2022-10-11T09:46:57.995Z,9.80
2022-10-11T09:49:41.306Z,11.75
2022-10-11T09:52:20.752Z,10.80
2022-10-11T09:54:52.066Z,10.20
2022-10-11T09:57:25.664Z,18.15
2022-10-11T10:00:05.538Z,14.70
2022-10-11T10:02:51.042Z,14.13
2022-10-11T10:05:21.292Z,16.17
2022-10-11T10:08:05.337Z,12.30
2022-10-11T10:10:35.002Z,15.23
2022-10-11T10:13:04.833Z,6.85
2022-10-11T10:15:35.436Z,15.60
2022-10-11T10:18:04.309Z,17.80
2022-10-11T10:20:34.464Z,19.42
2022-10-11T10:23:27.750Z,11.25
2022-10-11T10:26:14.380Z,12.45
2022-10-11T10:29:01.198Z,17.17
2022-10-11T10:34:50.848Z,14.32
2022-10-11T10:37:29.342Z,16.92
2022-10-11T10:40:05.191Z,16.02
2022-10-11T10:42:33.237Z,16.58
2022-10-11T10:45:01.360Z,16.13
2022-10-11T10:47:44.599Z,16.95
2022-10-11T10:50:21.705Z,24.65
2022-10-11T10:52:55.175Z,14.45
2022-10-11T10:56:11.650Z,10.15
2022-10-11T10:58:53.665Z,10.05
2022-10-11T11:01:26.707Z,19.08
2022-10-11T11:04:07.736Z,12.07
2022-10-11T11:07:14.451Z,15.02
2022-10-11T11:09:50.786Z,10.27
2022-10-11T11:12:26.738Z,10.48
2022-10-11T11:15:00.173Z,10.85
2022-10-11T11:17:36.801Z,11.68
2022-10-11T11:20:12.962Z,10.90
2022-10-11T11:23:08.299Z,11.82
2022-10-11T11:25:47.574Z,11.00
2022-10-11T11:28:57.105Z,8.68
2022-10-11T11:31:36.911Z,11.82
2022-10-11T11:34:22.069Z,15.80
2022-10-11T11:36:57.028Z,11.05
2022-10-11T11:39:44.223Z,10.07
2022-10-11T11:42:27.586Z,11.45
2022-10-11T11:44:55.732Z,7.53
2022-10-11T11:47:30.542Z,13.77
2022-10-11T11:50:15.357Z,15.68
2022-10-11T11:52:47.215Z,8.38
2022-10-11T11:55:33.722Z,11.25
2022-10-11T11:58:42.434Z,20.70
2022-10-11T12:01:30.255Z,17.70
2022-10-11T12:04:08.549Z,14.52
2022-10-11T12:06:47.749Z,9.55
2022-10-11T12:09:26.469Z,9.50
2022-10-11T12:11:59.232Z,8.43
2022-10-11T12:14:34.709Z,8.85
2022-10-11T12:17:12.066Z,9.82
2022-10-11T12:20:15.492Z,6.53
2022-10-11T12:22:59.992Z,10.07
2022-10-11T12:25:28.713Z,11.75
2022-10-11T12:27:59.561Z,11.13
2022-10-11T12:30:48.014Z,13.88
2022-10-11T12:33:18.442Z,6.30
2022-10-11T12:35:55.315Z,9.07
2022-10-11T12:38:25.879Z,8.45
2022-10-11T12:41:02.596Z,9.45
2022-10-11T12:43:37.508Z,4.68
2022-10-11T12:46:33.855Z,12.40
2022-10-11T12:49:13.293Z,7.35
2022-10-11T12:51:53.672Z,13.68
2022-10-11T12:54:39.719Z,9.50
2022-10-11T12:57:13.643Z,8.75
2022-10-11T12:59:45.329Z,6.78
2022-10-11T13:02:35.992Z,6.40
2022-10-11T13:05:22.023Z,10.30
2022-10-11T13:07:53.022Z,10.52
2022-10-11T13:10:27.994Z,11.13
2022-10-11T13:13:02.881Z,12.13
2022-10-11T13:21:41.559Z,9.60
2022-10-11T13:24:17.838Z,11.77
2022-10-11T13:26:49.368Z,8.70
2022-10-11T13:29:27.339Z,9.55
2022-10-11T13:31:55.097Z,9.70
2022-10-11T13:34:23.627Z,9.90
2022-10-11T13:36:58.568Z,20.23
2022-10-11T13:39:34.399Z,9.30
2022-10-11T13:42:07.193Z,20.35
2022-10-11T13:44:36.634Z,24.75
2022-10-11T13:47:05.082Z,14.43
2022-10-11T13:49:37.865Z,12.70
2022-10-11T13:52:23.148Z,15.65
2022-10-11T13:54:54.599Z,16.65
2022-10-11T13:57:29.033Z,7.90
2022-10-11T13:59:56.466Z,17.38
2022-10-11T14:02:26.047Z,12.30
2022-10-11T14:04:53.766Z,9.43
2022-10-11T14:07:35.808Z,9.88
2022-10-11T14:10:05.905Z,14.85
2022-10-11T14:12:38.238Z,8.55
2022-10-11T14:15:22.966Z,10.63
2022-10-11T14:17:51.484Z,12.80
2022-10-11T14:20:45.790Z,13.65
2022-10-11T14:23:13.538Z,7.68
2022-10-11T14:25:41.513Z,11.60
2022-10-11T14:28:13.448Z,8.60
2022-10-11T14:30:42.286Z,11.05
2022-10-11T14:33:12.156Z,14.98
2022-10-11T14:35:43.381Z,11.18
2022-10-11T14:38:12.413Z,9.30
2022-10-11T14:40:40.511Z,24.38
2022-10-11T14:43:08.263Z,21.23
2022-10-11T14:45:38.133Z,26.90
2022-10-11T14:48:06.703Z,28.77
2022-10-11T14:50:48.041Z,34.38
2022-10-11T14:53:15.365Z,59.65
2022-10-11T14:55:43.594Z,30.15
2022-10-11T14:58:14.646Z,25.05
2022-10-11T15:00:42.338Z,41.58
2022-10-11T15:03:10.171Z,74.57
2022-10-11T15:05:39.469Z,24.80
2022-10-11T15:08:07.628Z,35.15
2022-10-11T15:10:38.384Z,43.47
2022-10-11T15:13:07.368Z,18.60
2022-10-11T15:15:37.100Z,19.42
2022-10-11T15:18:06.599Z,8.80
2022-10-11T15:20:36.015Z,15.00
2022-10-11T15:23:09.807Z,18.92
2022-10-11T15:25:39.541Z,15.60
2022-10-11T15:28:08.660Z,21.17
2022-10-11T15:30:41.276Z,22.77
2022-10-11T15:33:09.302Z,29.23
2022-10-11T15:35:39.148Z,20.60
2022-10-11T15:38:07.639Z,21.80
2022-10-11T15:40:42.614Z,15.15
2022-10-11T15:43:15.373Z,17.77
2022-10-11T15:45:55.035Z,11.00
2022-10-11T15:48:29.733Z,14.97
2022-10-11T15:50:58.823Z,13.57
2022-10-11T15:53:33.521Z,13.23
2022-10-11T15:56:07.576Z,19.83
2022-10-11T15:58:39.006Z,20.37
2022-10-11T16:01:19.596Z,19.67
2022-10-11T16:03:49.174Z,14.77
2022-10-11T16:06:18.498Z,19.47
2022-10-11T16:08:46.366Z,20.17
2022-10-11T16:11:14.140Z,23.50
2022-10-11T16:13:41.646Z,22.83
2022-10-11T16:16:10.439Z,30.33
2022-10-11T16:18:38.403Z,50.57
2022-10-11T16:21:09.205Z,55.73
2022-10-11T16:23:37.492Z,46.27
2022-10-11T16:26:08.000Z,40.47
2022-10-11T16:28:37.403Z,35.23
2022-10-11T16:31:11.148Z,27.37
2022-10-11T16:33:46.081Z,26.07
2022-10-11T16:36:36.821Z,24.13
2022-10-11T16:39:11.291Z,22.37
2022-10-11T16:41:39.195Z,19.27
2022-10-11T16:44:07.446Z,16.30
2022-10-11T16:46:35.110Z,16.53
2022-10-11T16:49:04.107Z,12.03
2022-10-11T16:51:31.758Z,10.33
2022-10-11T16:54:00.742Z,15.83
2022-10-11T16:56:30.287Z,19.63
2022-10-11T16:58:59.477Z,13.50
2022-10-11T17:01:28.599Z,12.30
2022-10-11T17:03:58.319Z,15.50
2022-10-11T17:06:26.521Z,17.13
2022-10-11T17:08:55.181Z,17.30
2022-10-11T17:11:22.978Z,18.40
2022-10-11T17:13:53.531Z,16.83
2022-10-11T17:16:21.831Z,13.77
2022-10-11T17:18:49.824Z,11.80
2022-10-11T17:21:18.703Z,12.00
2022-10-11T17:23:49.739Z,15.63
2022-10-11T17:26:25.119Z,15.53
2022-10-11T17:28:57.543Z,14.53
2022-10-11T17:31:25.634Z,16.33
2022-10-11T17:33:54.520Z,41.33
2022-10-11T17:36:41.221Z,21.80
2022-10-11T17:39:12.338Z,16.20
2022-10-11T17:41:39.982Z,19.77
2022-10-11T17:44:07.412Z,16.00
2022-10-11T17:46:34.847Z,13.00
2022-10-11T17:49:05.580Z,15.60
2022-10-11T17:51:34.023Z,11.00
2022-10-11T17:54:01.974Z,13.53
2022-10-11T17:56:35.023Z,16.27
2022-10-11T17:59:06.116Z,19.93
2022-10-11T18:01:33.874Z,24.50
2022-10-11T18:04:04.559Z,22.73
2022-10-11T18:06:38.336Z,35.37
2022-10-11T18:09:06.379Z,41.93
2022-10-11T18:11:35.102Z,45.87
2022-10-11T18:14:03.116Z,26.27
2022-10-11T18:16:31.956Z,17.70
2022-10-11T18:18:59.774Z,18.93
2022-10-11T18:21:33.606Z,19.23
2022-10-11T18:24:05.570Z,14.60
2022-10-11T18:26:33.465Z,14.90
2022-10-11T18:29:01.305Z,18.17
2022-10-11T18:31:30.786Z,15.17
2022-10-11T18:33:59.158Z,16.83
2022-10-11T18:36:29.415Z,20.63
2022-10-11T18:39:03.197Z,180.97
2022-10-11T18:41:32.279Z,251.33
2022-10-11T18:44:06.803Z,316.67
2022-10-11T18:46:37.153Z,327.40
2022-10-11T18:49:05.526Z,190.60
2022-10-11T18:51:36.319Z,245.67
2022-10-11T18:54:05.042Z,173.20
2022-10-11T18:56:35.663Z,167.00
2022-10-11T18:59:05.201Z,203.83
2022-10-11T19:01:38.252Z,200.70
2022-10-11T19:04:08.572Z,130.40
2022-10-11T19:06:39.418Z,108.63
2022-10-11T19:09:13.102Z,97.53
2022-10-11T19:11:42.437Z,90.93
2022-10-11T19:14:12.325Z,76.27
2022-10-11T19:16:45.532Z,122.13
2022-10-11T19:19:13.730Z,96.87
2022-10-11T19:21:41.324Z,75.40
2022-10-11T19:24:09.727Z,86.53
2022-10-11T19:26:40.015Z,63.20
2022-10-11T19:29:15.154Z,77.73
2022-10-11T19:31:49.136Z,86.73
2022-10-11T19:34:18.970Z,76.63
2022-10-11T19:36:50.283Z,93.53
2022-10-11T19:39:20.089Z,109.20
2022-10-11T19:41:51.512Z,90.07
2022-10-11T19:44:19.728Z,109.97
2022-10-11T19:46:52.655Z,92.47
2022-10-11T19:49:25.403Z,135.07
2022-10-11T19:51:55.835Z,134.93
2022-10-11T19:54:26.001Z,120.53
2022-10-11T19:56:59.094Z,109.57
2022-10-11T19:59:30.743Z,80.77
2022-10-11T20:01:58.762Z,65.27
2022-10-11T20:04:51.563Z,50.20
2022-10-11T20:07:14.935Z,40.37
2022-10-11T20:09:43.471Z,31.63
2022-10-11T20:12:11.749Z,32.17
2022-10-11T20:14:39.617Z,27.10
2022-10-11T20:17:07.885Z,31.33
2022-10-11T20:19:35.820Z,23.50
2022-10-11T20:22:04.838Z,29.17
2022-10-11T20:24:34.827Z,31.43
2022-10-11T20:27:05.602Z,24.87
2022-10-11T20:29:34.398Z,23.13
2022-10-11T20:32:02.978Z,25.80
2022-10-11T20:34:31.325Z,31.77
2022-10-11T20:36:59.553Z,30.73
2022-10-11T20:39:27.662Z,21.90
2022-10-11T20:41:57.513Z,18.93
2022-10-11T20:44:25.362Z,18.07
2022-10-11T20:46:53.719Z,20.30
2022-10-11T20:49:22.681Z,27.63
2022-10-11T20:51:50.634Z,19.27
2022-10-11T20:54:19.071Z,18.63
2022-10-11T20:56:47.400Z,20.03
2022-10-11T20:59:17.655Z,18.07
2022-10-11T21:01:45.855Z,19.57
2022-10-11T21:04:20.169Z,26.33
2022-10-11T21:06:50.842Z,18.20
2022-10-11T21:09:18.210Z,33.43
2022-10-11T21:11:46.719Z,24.83
2022-10-11T21:14:15.004Z,23.63
2022-10-11T21:16:42.724Z,23.80
2022-10-11T21:19:13.250Z,18.77
2022-10-11T21:21:40.560Z,22.63
2022-10-11T21:24:08.528Z,20.70
2022-10-11T21:26:36.564Z,27.73
2022-10-11T21:29:04.332Z,19.70
2022-10-11T21:31:34.394Z,26.10
2022-10-11T21:34:03.397Z,16.63
2022-10-11T21:36:31.215Z,20.50
2022-10-11T21:38:58.570Z,23.23
2022-10-11T21:41:30.277Z,17.07
2022-10-11T21:43:58.346Z,16.20
2022-10-11T21:46:47.513Z,17.07
2022-10-11T21:49:16.256Z,18.20
2022-10-11T21:51:44.169Z,21.47
2022-10-11T21:54:12.099Z,17.10
2022-10-11T21:56:39.865Z,22.40
2022-10-11T21:59:11.129Z,16.57
2022-10-11T22:01:41.478Z,19.63
2022-10-11T22:04:10.283Z,20.20
2022-10-11T22:06:38.211Z,19.40
2022-10-11T22:09:06.891Z,24.57
2022-10-11T22:11:34.654Z,17.50
2022-10-11T22:14:02.557Z,18.37
2022-10-11T22:16:30.052Z,16.33
2022-10-11T22:18:57.310Z,22.27
2022-10-11T22:21:24.870Z,25.20
2022-10-11T22:23:53.872Z,18.37
2022-10-11T22:26:24.117Z,17.23
2022-10-11T22:28:53.495Z,18.97
2022-10-11T22:31:21.552Z,20.90
2022-10-11T22:33:49.547Z,23.93
2022-10-11T22:36:19.098Z,22.67
2022-10-11T22:38:46.736Z,26.60
2022-10-11T22:41:15.132Z,28.67
2022-10-11T22:43:42.693Z,28.07
2022-10-11T22:46:10.413Z,26.67
2022-10-11T22:48:37.610Z,35.77
2022-10-11T22:51:05.124Z,26.53
2022-10-11T22:53:32.732Z,29.83
2022-10-11T22:56:00.359Z,22.77
2022-10-11T22:58:27.888Z,18.67
2022-10-11T23:00:55.162Z,29.57
2022-10-11T23:03:22.615Z,25.93
2022-10-11T23:05:57.506Z,26.73
2022-10-11T23:08:25.286Z,19.37
2022-10-11T23:10:52.757Z,23.33
2022-10-11T23:13:20.405Z,22.10
2022-10-11T23:15:47.753Z,17.20
2022-10-11T23:18:16.931Z,29.50
2022-10-11T23:20:44.771Z,17.80
2022-10-11T23:23:12.030Z,16.13
2022-10-11T23:25:39.517Z,19.73
2022-10-11T23:28:07.208Z,18.10
2022-10-11T23:30:34.519Z,23.40
2022-10-11T23:33:02.166Z,18.40
2022-10-11T23:35:29.415Z,23.50
2022-10-11T23:37:56.843Z,21.03
2022-10-11T23:40:24.202Z,16.97
2022-10-11T23:42:51.459Z,20.33
2022-10-11T23:45:18.662Z,17.83
2022-10-11T23:47:46.042Z,20.57
2022-10-11T23:50:13.222Z,14.37
2022-10-11T23:52:40.409Z,16.77
2022-10-11T23:55:08.540Z,23.77
2022-10-11T23:57:36.156Z,20.93
